createdAt,value
2022-09-26T00:01:44.200Z,37.58
2022-09-26T00:06:46.859Z,40.25
2022-09-26T00:11:49.577Z,37.60
2022-09-26T00:16:51.988Z,38.08
2022-09-26T00:21:54.479Z,35.97
2022-09-26T00:26:56.830Z,34.58
2022-09-26T00:31:59.272Z,35.92
2022-09-26T00:37:01.909Z,35.00
2022-09-26T00:42:04.485Z,37.63
2022-09-26T00:47:08.550Z,37.95
2022-09-26T00:52:13.070Z,37.15
2022-09-26T00:57:41.098Z,40.90
2022-09-26T01:07:46.816Z,38.88
2022-09-26T01:12:49.146Z,36.60
2022-09-26T01:17:51.754Z,40.72
2022-09-26T01:23:31.914Z,40.45
2022-09-26T01:29:04.741Z,46.13
2022-09-26T01:34:21.061Z,42.60
2022-09-26T01:39:43.806Z,46.55
2022-09-26T01:44:52.505Z,41.78
2022-09-26T01:50:04.126Z,35.75
2022-09-26T01:55:17.617Z,35.20
2022-09-26T02:00:20.667Z,35.58
2022-09-26T02:05:33.442Z,36.22
2022-09-26T02:10:39.276Z,34.30
2022-09-26T02:15:48.345Z,35.20
2022-09-26T02:20:57.011Z,31.50
2022-09-26T02:26:00.169Z,29.02
2022-09-26T02:31:04.479Z,29.45
2022-09-26T02:36:08.490Z,32.55
2022-09-26T02:41:30.284Z,30.60
2022-09-26T02:46:53.751Z,29.55
2022-09-26T02:52:14.418Z,32.65
2022-09-26T02:57:55.638Z,32.38
2022-09-26T03:03:19.982Z,35.15
2022-09-26T03:08:26.539Z,33.55
2022-09-26T03:13:34.759Z,38.63
2022-09-26T03:18:43.030Z,32.78
2022-09-26T03:23:45.993Z,33.00
2022-09-26T03:28:49.065Z,30.85
2022-09-26T03:33:52.939Z,32.65
2022-09-26T03:38:55.335Z,27.33
2022-09-26T03:44:12.103Z,29.73
2022-09-26T03:49:35.327Z,27.80
2022-09-26T03:54:37.943Z,32.33
2022-09-26T03:59:40.498Z,31.92
2022-09-26T04:04:43.085Z,33.08
2022-09-26T04:09:46.152Z,32.75
2022-09-26T04:14:48.521Z,33.88
2022-09-26T04:19:51.718Z,37.88
2022-09-26T04:24:54.711Z,37.08
2022-09-26T04:29:57.852Z,38.67
2022-09-26T04:35:11.419Z,31.48
2022-09-26T04:40:13.958Z,40.85
2022-09-26T04:45:26.710Z,38.53
2022-09-26T04:50:29.226Z,39.55
2022-09-26T04:55:49.570Z,37.75
2022-09-26T05:00:52.608Z,34.33
2022-09-26T05:06:10.117Z,35.50
2022-09-26T05:11:13.146Z,35.70
2022-09-26T05:16:16.197Z,31.42
2022-09-26T05:21:20.000Z,32.85
2022-09-26T05:26:33.278Z,34.90
2022-09-26T05:31:38.098Z,32.08
2022-09-26T05:36:42.833Z,32.13
2022-09-26T05:41:45.185Z,30.10
2022-09-26T05:46:47.751Z,34.13
2022-09-26T05:51:50.323Z,32.22
2022-09-26T05:56:53.847Z,33.72
2022-09-26T06:02:18.606Z,29.92
2022-09-26T06:07:37.643Z,27.38
2022-09-26T06:12:48.815Z,24.27
2022-09-26T06:18:04.588Z,24.73
2022-09-26T06:23:07.339Z,24.27
2022-09-26T06:28:13.582Z,24.33
2022-09-26T06:33:16.118Z,26.88
2022-09-26T06:38:47.648Z,22.52
2022-09-26T06:43:53.219Z,28.75
2022-09-26T06:49:22.131Z,23.40
2022-09-26T06:54:45.883Z,27.98
2022-09-26T06:59:49.071Z,23.35
2022-09-26T07:05:06.090Z,23.38
2022-09-26T07:10:12.822Z,29.73
2022-09-26T07:15:21.025Z,23.48
2022-09-26T07:20:24.127Z,22.88
2022-09-26T07:25:49.148Z,24.85
2022-09-26T07:30:51.740Z,22.92
2022-09-26T07:36:10.871Z,26.77
2022-09-26T07:41:14.097Z,31.60
2022-09-26T07:46:35.375Z,25.33
2022-09-26T07:51:39.215Z,23.40
2022-09-26T07:56:46.439Z,24.65
2022-09-26T08:02:24.136Z,23.67
2022-09-26T08:12:39.971Z,25.80
2022-09-26T08:18:08.635Z,26.63
2022-09-26T08:23:11.659Z,26.83
2022-09-26T08:28:14.688Z,26.30
2022-09-26T08:33:19.129Z,26.48
2022-09-26T08:38:23.204Z,25.40
2022-09-26T08:44:11.248Z,28.23
2022-09-26T08:49:31.499Z,25.85
2022-09-26T08:54:43.888Z,20.92
2022-09-26T08:59:47.988Z,24.10
2022-09-26T09:10:04.957Z,24.90
2022-09-26T09:15:29.036Z,23.13
2022-09-26T09:21:39.372Z,20.45
2022-09-26T09:27:54.031Z,18.77
2022-09-26T09:33:02.029Z,17.10
2022-09-26T09:43:47.591Z,15.60
2022-09-26T09:48:55.910Z,16.05
2022-09-26T09:54:04.071Z,15.15
2022-09-26T09:59:51.794Z,14.75
2022-09-26T10:10:22.986Z,15.73
2022-09-26T10:16:06.571Z,15.45
2022-09-26T10:21:34.755Z,17.10
2022-09-26T10:26:39.388Z,16.00
2022-09-26T10:31:43.598Z,15.98
2022-09-26T10:36:53.943Z,13.85
2022-09-26T10:41:58.612Z,17.13
2022-09-26T10:47:09.003Z,19.42
2022-09-26T10:52:20.112Z,15.32
2022-09-26T10:57:28.335Z,16.00
2022-09-26T11:02:32.520Z,16.40
2022-09-26T11:07:39.362Z,17.00
2022-09-26T11:13:17.150Z,15.77
2022-09-26T11:18:27.308Z,17.70
2022-09-26T11:23:35.720Z,17.52
2022-09-26T11:28:40.932Z,17.48
2022-09-26T11:34:04.855Z,16.02
2022-09-26T11:39:41.037Z,16.48
2022-09-26T11:44:59.022Z,13.05
2022-09-26T11:50:39.812Z,10.98
2022-09-26T11:55:56.215Z,11.57
2022-09-26T12:01:19.969Z,12.85
2022-09-26T12:06:35.175Z,12.57
2022-09-26T12:11:45.943Z,12.57
2022-09-26T12:17:19.717Z,14.35
2022-09-26T12:22:43.194Z,13.50
2022-09-26T12:28:09.791Z,13.70
2022-09-26T12:33:24.301Z,13.15
2022-09-26T12:38:56.661Z,19.33
2022-09-26T12:44:09.022Z,20.75
2022-09-26T12:49:21.470Z,20.35
2022-09-26T12:54:39.113Z,19.33
2022-09-26T12:59:41.417Z,15.82
2022-09-26T13:04:51.691Z,15.40
2022-09-26T13:10:12.051Z,16.52
2022-09-26T13:15:30.521Z,15.75
2022-09-26T13:20:50.063Z,17.67
2022-09-26T13:26:04.699Z,16.88
2022-09-26T13:31:19.556Z,16.27
2022-09-26T13:36:23.017Z,19.58
2022-09-26T13:41:43.543Z,18.80
2022-09-26T13:47:27.152Z,18.02
2022-09-26T13:53:06.909Z,17.10
2022-09-26T13:58:26.614Z,20.55
2022-09-26T14:03:29.210Z,18.92
2022-09-26T14:08:55.257Z,15.45
2022-09-26T14:14:19.231Z,15.27
2022-09-26T14:19:39.407Z,14.80
2022-09-26T14:24:45.427Z,14.38
2022-09-26T14:29:53.060Z,15.30
2022-09-26T14:40:00.538Z,14.15
2022-09-26T14:45:09.031Z,17.40
2022-09-26T14:50:20.621Z,16.95
2022-09-26T14:55:23.090Z,18.77
2022-09-26T15:00:41.990Z,17.77
2022-09-26T15:05:45.175Z,18.55
2022-09-26T15:10:48.464Z,17.25
2022-09-26T15:15:50.824Z,17.80
2022-09-26T15:21:04.167Z,17.60
2022-09-26T15:26:07.109Z,17.73
2022-09-26T15:31:39.371Z,17.98
2022-09-26T15:36:42.621Z,15.05
2022-09-26T15:42:04.337Z,24.88
2022-09-26T15:47:30.122Z,26.17
2022-09-26T15:52:35.727Z,23.30
2022-09-26T15:57:38.236Z,19.20
2022-09-26T16:02:40.746Z,17.02
2022-09-26T16:07:48.392Z,18.63
2022-09-26T16:17:54.767Z,16.23
2022-09-26T16:23:04.081Z,17.67
2022-09-26T16:28:10.491Z,21.60
2022-09-26T16:33:28.218Z,21.08
2022-09-26T16:43:38.558Z,19.75
2022-09-26T16:48:51.405Z,20.35
2022-09-26T16:54:08.973Z,33.72
2022-09-26T16:59:26.822Z,27.00
2022-09-26T17:04:31.289Z,27.80
2022-09-26T17:09:35.216Z,25.98
2022-09-26T17:14:40.630Z,27.67
2022-09-26T17:19:44.852Z,27.13
2022-09-26T17:24:51.317Z,33.22
2022-09-26T17:29:55.843Z,38.15
2022-09-26T17:35:00.017Z,61.97
2022-09-26T17:40:04.062Z,57.47
2022-09-26T17:45:07.081Z,49.92
2022-09-26T17:50:16.917Z,58.90
2022-09-26T17:55:21.691Z,31.40
2022-09-26T18:00:24.135Z,46.75
2022-09-26T18:05:31.227Z,41.03
2022-09-26T18:10:35.011Z,36.05
2022-09-26T18:15:37.635Z,41.28
2022-09-26T18:20:40.563Z,36.95
2022-09-26T18:25:47.199Z,34.28
2022-09-26T18:30:57.859Z,32.70
2022-09-26T18:36:00.855Z,30.40
2022-09-26T18:41:07.048Z,46.67
2022-09-26T18:46:17.828Z,32.70
2022-09-26T18:51:20.642Z,34.72
2022-09-26T18:56:41.847Z,39.22
2022-09-26T19:01:44.437Z,33.53
2022-09-26T19:06:49.858Z,31.00
2022-09-26T19:11:52.274Z,34.20
2022-09-26T19:16:55.824Z,38.53
2022-09-26T19:22:01.006Z,43.50
2022-09-26T19:27:11.356Z,38.92
2022-09-26T19:32:20.127Z,47.47
2022-09-26T19:37:22.542Z,44.33
2022-09-26T19:42:26.393Z,41.00
2022-09-26T19:47:29.710Z,41.97
2022-09-26T19:52:32.173Z,46.38
2022-09-26T19:57:34.740Z,53.60
2022-09-26T20:02:37.212Z,45.08
2022-09-26T20:07:39.603Z,54.22
2022-09-26T20:12:43.174Z,52.22
2022-09-26T20:17:46.442Z,44.55
2022-09-26T20:22:51.120Z,44.55
2022-09-26T20:27:53.660Z,49.95
2022-09-26T20:32:55.965Z,51.75
2022-09-26T20:38:05.149Z,66.85
2022-09-26T20:43:11.861Z,48.05
2022-09-26T20:48:23.523Z,42.17
2022-09-26T20:53:26.370Z,35.30
2022-09-26T20:58:28.753Z,47.58
2022-09-26T21:03:31.755Z,42.53
2022-09-26T21:08:34.082Z,38.28
2022-09-26T21:13:36.432Z,38.28
2022-09-26T21:18:39.031Z,43.25
2022-09-26T21:23:43.116Z,38.05
2022-09-26T21:28:45.615Z,45.40
2022-09-26T21:33:48.182Z,46.70
2022-09-26T21:38:51.896Z,46.22
2022-09-26T21:44:06.173Z,62.05
2022-09-26T21:49:08.619Z,56.33
2022-09-26T21:54:21.805Z,57.28
2022-09-26T21:59:24.874Z,56.22
2022-09-26T22:04:27.406Z,54.08
2022-09-26T22:09:30.476Z,52.50
2022-09-26T22:14:33.160Z,39.17
2022-09-26T22:19:36.076Z,38.65
2022-09-26T22:24:38.511Z,38.50
2022-09-26T22:29:42.025Z,36.47
2022-09-26T22:34:44.383Z,36.60
2022-09-26T22:39:46.759Z,42.63
2022-09-26T22:44:49.153Z,47.95
2022-09-26T22:49:52.102Z,50.25
2022-09-26T22:54:54.633Z,39.95
2022-09-26T22:59:57.300Z,37.78
2022-09-26T23:04:59.697Z,36.40
2022-09-26T23:10:02.213Z,37.63
2022-09-26T23:15:05.441Z,39.65
2022-09-26T23:20:08.343Z,45.45
2022-09-26T23:25:10.882Z,37.75
2022-09-26T23:30:13.490Z,36.97
2022-09-26T23:35:16.117Z,37.63
2022-09-26T23:40:18.529Z,37.13
2022-09-26T23:45:20.888Z,36.08
2022-09-26T23:50:23.318Z,36.58
2022-09-26T23:55:25.705Z,36.33
